createdAt,value
2018-11-12T00:01:01.130Z,94.63
2018-11-12T00:03:30.619Z,94.66
2018-11-12T00:06:00.065Z,94.68
2018-11-12T00:08:29.471Z,94.82
2018-11-12T00:10:58.967Z,94.62
2018-11-12T00:13:28.510Z,94.50
2018-11-12T00:15:58.086Z,94.85
2018-11-12T00:18:27.531Z,94.64
2018-11-12T00:20:56.958Z,94.39
2018-11-12T00:23:26.436Z,94.80
2018-11-12T00:25:55.877Z,94.33
2018-11-12T00:28:25.368Z,94.46
2018-11-12T00:30:54.830Z,95.03
2018-11-12T00:33:24.268Z,94.34
2018-11-12T00:35:53.708Z,95.05
2018-11-12T00:38:23.306Z,95.10
2018-11-12T00:40:52.795Z,95.12
2018-11-12T00:43:22.323Z,94.87
2018-11-12T00:45:51.810Z,95.21
2018-11-12T00:48:21.259Z,95.01
2018-11-12T00:50:50.758Z,94.90
2018-11-12T00:53:20.743Z,94.36
2018-11-12T00:55:50.166Z,95.12
2018-11-12T00:58:19.585Z,94.84
2018-11-12T01:00:49.077Z,94.45
2018-11-12T01:03:18.641Z,95.00
2018-11-12T01:05:48.104Z,94.80
2018-11-12T01:08:17.626Z,94.95
2018-11-12T01:10:47.116Z,95.17
2018-11-12T01:13:16.578Z,94.69
2018-11-12T01:15:46.035Z,94.87
2018-11-12T01:18:15.526Z,95.36
2018-11-12T01:20:44.959Z,95.53
2018-11-12T01:23:14.430Z,95.50
2018-11-12T01:25:43.884Z,95.24
2018-11-12T01:28:13.372Z,95.61
2018-11-12T01:30:42.849Z,95.64
2018-11-12T01:33:12.306Z,95.83
2018-11-12T01:35:41.754Z,95.70
2018-11-12T01:38:11.214Z,95.67
2018-11-12T01:40:40.699Z,95.66
2018-11-12T01:43:10.112Z,95.63
2018-11-12T01:45:39.667Z,95.75
2018-11-12T01:48:09.180Z,95.46
2018-11-12T01:50:38.657Z,95.28
2018-11-12T01:53:08.165Z,95.85
2018-11-12T01:55:37.653Z,95.88
2018-11-12T01:58:07.140Z,96.07
2018-11-12T02:00:36.588Z,95.25
2018-11-12T02:03:06.189Z,94.80
2018-11-12T02:05:35.654Z,95.56
2018-11-12T02:08:05.403Z,96.18
2018-11-12T02:10:34.855Z,96.17
2018-11-12T02:13:04.356Z,95.93
2018-11-12T02:15:33.888Z,96.19
2018-11-12T02:18:03.363Z,95.84
2018-11-12T02:20:32.805Z,95.68
2018-11-12T02:23:02.349Z,95.63
2018-11-12T02:25:31.865Z,95.40
2018-11-12T02:28:01.373Z,95.53
2018-11-12T02:30:35.955Z,95.13
2018-11-12T02:33:05.882Z,95.84
2018-11-12T02:35:35.287Z,95.58
2018-11-12T02:38:04.725Z,95.61
2018-11-12T02:40:34.243Z,95.27
2018-11-12T02:43:03.787Z,95.28
2018-11-12T02:45:33.255Z,96.01
2018-11-12T02:48:02.848Z,95.77
2018-11-12T02:50:32.311Z,95.61
2018-11-12T02:53:01.829Z,95.42
2018-11-12T02:55:31.311Z,95.31
2018-11-12T02:58:00.733Z,95.52
2018-11-12T03:00:30.248Z,95.22
2018-11-12T03:02:59.707Z,94.81
2018-11-12T03:05:29.195Z,94.76
2018-11-12T03:07:59.507Z,94.91
2018-11-12T03:10:29.009Z,94.68
2018-11-12T03:12:58.478Z,94.37
2018-11-12T03:15:27.923Z,94.71
2018-11-12T03:17:57.705Z,95.02
2018-11-12T03:20:27.262Z,94.84
2018-11-12T03:22:56.695Z,94.80
2018-11-12T03:25:26.176Z,95.26
2018-11-12T03:27:55.884Z,95.46
2018-11-12T03:30:26.043Z,95.43
2018-11-12T03:32:55.592Z,95.92
2018-11-12T03:35:25.041Z,95.79
2018-11-12T03:37:54.635Z,95.52
2018-11-12T03:40:24.817Z,95.46
2018-11-12T03:42:54.440Z,95.40
2018-11-12T03:45:25.236Z,94.99
2018-11-12T03:47:56.004Z,95.44
2018-11-12T03:50:25.918Z,95.44
2018-11-12T03:52:55.495Z,95.41
2018-11-12T03:55:25.039Z,95.85
2018-11-12T03:57:54.656Z,95.89
2018-11-12T04:00:30.857Z,95.57
2018-11-12T04:03:00.205Z,95.70
2018-11-12T04:05:29.724Z,95.29
2018-11-12T04:07:59.600Z,95.52
2018-11-12T04:10:29.198Z,95.71
2018-11-12T04:12:58.766Z,95.96
2018-11-12T04:15:28.342Z,95.90
2018-11-12T04:17:58.845Z,96.10
2018-11-12T04:20:28.443Z,96.03
2018-11-12T04:23:01.678Z,96.09
2018-11-12T04:25:32.055Z,95.93
2018-11-12T04:28:01.754Z,95.75
2018-11-12T04:30:31.365Z,95.15
2018-11-12T04:33:00.996Z,95.16
2018-11-12T04:35:30.685Z,95.34
2018-11-12T04:38:00.412Z,95.69
2018-11-12T04:40:30.122Z,94.91
2018-11-12T04:42:59.677Z,94.52
2018-11-12T04:45:29.409Z,94.35
2018-11-12T04:47:59.606Z,95.31
2018-11-12T04:50:47.385Z,95.27
2018-11-12T04:53:17.024Z,95.43
2018-11-12T04:55:46.660Z,95.83
2018-11-12T04:58:16.319Z,96.15
2018-11-12T05:00:46.065Z,96.35
2018-11-12T05:03:15.539Z,96.15
2018-11-12T05:05:44.999Z,96.07
2018-11-12T05:08:14.574Z,96.24
2018-11-12T05:10:43.984Z,96.11
2018-11-12T05:13:13.432Z,95.99
2018-11-12T05:15:43.037Z,96.11
2018-11-12T05:18:12.474Z,95.82
2018-11-12T05:20:41.985Z,95.91
2018-11-12T05:23:20.138Z,95.90
2018-11-12T05:25:49.641Z,95.64
2018-11-12T05:28:19.142Z,95.22
2018-11-12T05:30:48.783Z,95.14
2018-11-12T05:33:18.485Z,95.75
2018-11-12T05:35:48.183Z,95.55
2018-11-12T05:38:17.788Z,96.50
2018-11-12T05:40:47.302Z,96.23
2018-11-12T05:43:16.830Z,96.31
2018-11-12T05:45:46.324Z,96.33
2018-11-12T05:48:15.869Z,96.28
2018-11-12T05:50:45.344Z,96.64
2018-11-12T05:53:14.770Z,96.06
2018-11-12T05:55:44.248Z,96.34
2018-11-12T05:58:13.738Z,96.34
2018-11-12T06:00:43.231Z,96.29
2018-11-12T06:03:12.717Z,96.67
2018-11-12T06:05:42.124Z,96.28
2018-11-12T06:08:11.551Z,96.34
2018-11-12T06:10:41.137Z,96.40
2018-11-12T06:13:10.566Z,96.59
2018-11-12T06:15:39.934Z,96.47
2018-11-12T06:18:09.443Z,96.22
2018-11-12T06:20:38.902Z,96.19
2018-11-12T06:23:08.353Z,96.59
2018-11-12T06:25:37.955Z,96.10
2018-11-12T06:28:07.442Z,96.55
2018-11-12T06:30:37.880Z,97.02
2018-11-12T06:33:07.362Z,96.61
2018-11-12T06:35:36.833Z,96.86
2018-11-12T06:38:06.716Z,96.54
2018-11-12T06:40:36.314Z,96.67
2018-11-12T06:43:06.145Z,96.28
2018-11-12T06:45:35.650Z,96.52
2018-11-12T06:48:05.149Z,96.64
2018-11-12T06:50:34.976Z,96.57
2018-11-12T06:53:04.691Z,96.62
2018-11-12T06:55:34.299Z,96.89
2018-11-12T06:58:03.718Z,96.57
2018-11-12T07:00:34.534Z,96.63
2018-11-12T07:03:04.040Z,96.59
2018-11-12T07:05:33.857Z,96.23
2018-11-12T07:08:03.308Z,96.16
2018-11-12T07:10:32.857Z,96.09
2018-11-12T07:13:02.397Z,96.08
2018-11-12T07:15:31.887Z,96.16
2018-11-12T07:18:01.412Z,95.90
2018-11-12T07:20:30.984Z,95.87
2018-11-12T07:23:00.478Z,95.75
2018-11-12T07:25:30.820Z,96.23
2018-11-12T07:28:00.295Z,95.96
2018-11-12T07:30:29.967Z,96.13
2018-11-12T07:33:00.050Z,96.16
2018-11-12T07:35:29.783Z,95.91
2018-11-12T07:37:59.485Z,95.52
2018-11-12T07:40:28.977Z,95.62
2018-11-12T07:42:58.556Z,95.83
2018-11-12T07:45:29.115Z,95.61
2018-11-12T07:47:59.399Z,95.52
2018-11-12T07:50:30.378Z,95.90
2018-11-12T07:52:59.862Z,95.57
2018-11-12T07:55:29.939Z,95.59
2018-11-12T07:57:59.883Z,95.62
2018-11-12T08:00:34.023Z,95.35
2018-11-12T08:03:09.123Z,94.71
2018-11-12T08:05:38.991Z,95.20
2018-11-12T08:08:09.061Z,94.75
2018-11-12T08:10:38.534Z,94.47
2018-11-12T08:13:08.028Z,94.58
2018-11-12T08:15:37.496Z,94.46
2018-11-12T08:18:07.567Z,94.70
2018-11-12T08:20:37.384Z,94.50
2018-11-12T08:23:07.115Z,94.62
2018-11-12T08:25:36.806Z,94.49
2018-11-12T08:28:06.719Z,93.90
2018-11-12T08:30:36.312Z,94.21
2018-11-12T08:33:06.912Z,93.61
2018-11-12T08:35:36.297Z,93.70
2018-11-12T08:38:06.302Z,93.77
2018-11-12T08:40:35.925Z,93.83
2018-11-12T08:43:05.493Z,94.23
2018-11-12T08:45:35.005Z,93.90
2018-11-12T08:48:04.587Z,93.43
2018-11-12T08:50:34.334Z,93.76
2018-11-12T08:53:04.026Z,94.06
2018-11-12T08:55:33.895Z,93.85
2018-11-12T08:58:04.334Z,93.99
2018-11-12T09:00:33.936Z,93.73
2018-11-12T09:03:03.484Z,94.07
2018-11-12T09:05:32.970Z,93.88
2018-11-12T09:08:03.353Z,94.03
2018-11-12T09:10:34.272Z,93.94
2018-11-12T09:13:03.952Z,94.21
2018-11-12T09:15:33.446Z,93.92
2018-11-12T09:18:03.345Z,94.06
2018-11-12T09:20:32.856Z,93.67
2018-11-12T09:23:02.475Z,93.82
2018-11-12T09:25:31.963Z,93.82
2018-11-12T09:28:01.522Z,93.95
2018-11-12T09:30:31.351Z,93.89
2018-11-12T09:33:36.593Z,93.74
2018-11-12T09:36:12.214Z,93.43
2018-11-12T09:38:45.429Z,93.49
2018-11-12T09:41:15.109Z,93.16
2018-11-12T09:43:44.885Z,93.94
2018-11-12T09:46:14.405Z,93.33
2018-11-12T09:48:44.187Z,93.28
2018-11-12T10:01:00.074Z,93.43
2018-11-12T10:03:30.683Z,93.27
2018-11-12T10:06:02.152Z,93.50
2018-11-12T10:08:38.526Z,93.72
2018-11-12T10:11:08.872Z,92.88
2018-11-12T10:13:39.169Z,93.09
2018-11-12T10:16:10.143Z,93.11
2018-11-12T10:18:36.052Z,93.19
2018-11-12T10:21:06.063Z,93.10
2018-11-12T10:23:35.745Z,93.40
2018-11-12T10:26:05.532Z,93.64
2018-11-12T10:28:35.046Z,93.77
2018-11-12T10:31:04.601Z,93.70
2018-11-12T10:33:34.168Z,93.45
2018-11-12T10:36:03.840Z,93.74
2018-11-12T10:38:33.443Z,93.91
2018-11-12T10:41:03.224Z,93.64
2018-11-12T10:43:32.762Z,94.31
2018-11-12T10:46:02.386Z,93.68
2018-11-12T10:48:32.008Z,93.63
2018-11-12T10:51:05.168Z,93.83
2018-11-12T10:53:31.250Z,94.82
2018-11-12T10:56:00.894Z,94.75
2018-11-12T10:58:30.357Z,94.92
2018-11-12T11:01:05.652Z,95.44
2018-11-12T11:03:40.888Z,95.40
2018-11-12T11:06:10.996Z,95.17
2018-11-12T11:08:41.006Z,95.78
2018-11-12T11:11:11.393Z,95.23
2018-11-12T11:13:43.111Z,95.62
2018-11-12T11:16:13.510Z,95.20
2018-11-12T11:18:44.111Z,94.95
2018-11-12T11:21:13.750Z,95.03
2018-11-12T11:23:43.380Z,95.64
2018-11-12T11:26:13.014Z,95.99
2018-11-12T11:28:42.604Z,96.03
2018-11-12T11:31:12.049Z,96.03
2018-11-12T11:33:41.479Z,95.50
2018-11-12T11:36:10.972Z,95.21
2018-11-12T11:38:40.468Z,96.10
2018-11-12T11:41:10.060Z,96.12
2018-11-12T11:43:39.531Z,96.43
2018-11-12T11:46:09.085Z,96.63
2018-11-12T11:48:38.556Z,96.39
2018-11-12T11:51:08.154Z,96.24
2018-11-12T11:53:37.687Z,95.29
2018-11-12T11:56:07.201Z,96.15
2018-11-12T11:58:36.647Z,96.41
2018-11-12T12:01:06.527Z,95.73
2018-11-12T12:03:36.106Z,96.59
2018-11-12T12:06:05.776Z,96.33
2018-11-12T12:08:35.292Z,96.37
2018-11-12T12:11:04.921Z,96.06
2018-11-12T12:13:34.480Z,96.32
2018-11-12T12:16:04.455Z,96.36
2018-11-12T12:18:34.012Z,96.53
2018-11-12T12:21:03.648Z,96.15
2018-11-12T12:23:33.116Z,95.64
2018-11-12T12:26:02.655Z,95.47
2018-11-12T12:28:32.199Z,95.51
2018-11-12T12:31:01.742Z,96.21
2018-11-12T12:33:31.242Z,96.02
2018-11-12T12:36:02.572Z,95.95
2018-11-12T12:38:32.007Z,96.00
2018-11-12T12:41:01.460Z,95.50
2018-11-12T12:43:31.107Z,95.50
2018-11-12T12:46:00.645Z,96.42
2018-11-12T12:48:32.201Z,96.37
2018-11-12T12:51:02.216Z,96.34
2018-11-12T12:53:32.176Z,95.97
2018-11-12T12:56:02.299Z,95.84
2018-11-12T12:58:32.255Z,96.08
2018-11-12T13:01:01.958Z,96.10
2018-11-12T13:03:33.905Z,95.67
2018-11-12T13:06:07.997Z,95.80
2018-11-12T13:08:38.054Z,96.34
2018-11-12T13:11:08.237Z,96.02
2018-11-12T13:13:38.624Z,96.11
2018-11-12T13:16:08.565Z,95.99
2018-11-12T13:18:38.901Z,96.06
2018-11-12T13:21:08.689Z,96.12
2018-11-12T13:23:39.813Z,96.18
2018-11-12T13:26:09.605Z,96.49
2018-11-12T13:28:39.305Z,96.28
2018-11-12T13:31:09.418Z,96.10
2018-11-12T13:33:39.197Z,96.40
2018-11-12T13:36:37.692Z,96.20
2018-11-12T13:39:23.199Z,95.66
2018-11-12T13:41:52.945Z,95.78
2018-11-12T13:44:22.724Z,96.09
2018-11-12T13:46:53.744Z,95.85
2018-11-12T13:49:23.505Z,95.61
2018-11-12T13:51:53.208Z,95.72
2018-11-12T13:54:23.060Z,95.26
2018-11-12T13:56:52.645Z,95.25
2018-11-12T13:59:22.224Z,95.10
2018-11-12T14:01:51.878Z,95.66
2018-11-12T14:04:21.403Z,95.45
2018-11-12T14:06:50.892Z,95.03
2018-11-12T14:09:20.409Z,95.05
2018-11-12T14:11:49.917Z,94.86
2018-11-12T14:14:19.488Z,94.80
2018-11-12T14:16:49.200Z,94.90
2018-11-12T14:19:18.726Z,94.80
2018-11-12T14:21:48.334Z,94.88
2018-11-12T14:24:18.211Z,95.04
2018-11-12T14:26:48.081Z,95.00
2018-11-12T14:29:17.627Z,94.88
2018-11-12T14:31:47.339Z,94.75
2018-11-12T14:34:17.041Z,95.31
2018-11-12T14:36:46.611Z,95.07
2018-11-12T14:39:16.125Z,95.10
2018-11-12T14:41:45.754Z,94.79
2018-11-12T14:44:15.374Z,94.74
2018-11-12T14:46:45.098Z,94.81
2018-11-12T14:49:14.660Z,95.05
2018-11-12T14:51:44.577Z,94.69
2018-11-12T14:54:14.612Z,94.95
2018-11-12T14:56:44.257Z,94.75
2018-11-12T14:59:13.792Z,94.67
2018-11-12T15:01:43.427Z,94.88
2018-11-12T15:04:13.019Z,94.51
2018-11-12T15:06:42.617Z,95.08
2018-11-12T15:09:12.749Z,94.65
2018-11-12T15:11:42.622Z,94.40
2018-11-12T15:14:12.143Z,94.54
2018-11-12T15:16:41.714Z,94.49
2018-11-12T15:19:11.426Z,94.81
2018-11-12T15:21:41.509Z,94.88
2018-11-12T15:24:11.140Z,95.17
2018-11-12T15:26:40.719Z,94.77
2018-11-12T15:29:10.379Z,94.98
2018-11-12T16:03:43.260Z,95.31
2018-11-12T16:06:12.971Z,95.54
2018-11-12T16:08:47.002Z,95.85
2018-11-12T16:11:16.521Z,95.58
2018-11-12T16:13:46.180Z,95.56
2018-11-12T16:16:15.682Z,95.56
2018-11-12T16:18:45.190Z,95.83
2018-11-12T16:21:14.848Z,95.12
2018-11-12T16:23:44.501Z,95.14
2018-11-12T16:26:14.212Z,95.28
2018-11-12T16:28:43.841Z,95.72
2018-11-12T16:31:13.543Z,94.95
2018-11-12T16:33:43.061Z,95.06
2018-11-12T16:36:12.577Z,95.28
2018-11-12T16:38:42.075Z,95.76
2018-11-12T16:41:11.635Z,95.02
2018-11-12T16:43:41.211Z,95.24
2018-11-12T16:46:10.977Z,94.96
2018-11-12T16:48:40.588Z,95.11
2018-11-12T16:51:10.073Z,95.14
2018-11-12T16:53:39.524Z,95.12
2018-11-12T16:56:09.002Z,95.07
2018-11-12T16:58:38.590Z,95.68
2018-11-12T17:01:08.152Z,95.24
2018-11-12T17:03:37.682Z,95.20
2018-11-12T17:06:07.176Z,95.27
2018-11-12T17:08:36.664Z,95.40
2018-11-12T17:11:06.293Z,95.13
2018-11-12T17:13:35.811Z,95.60
2018-11-12T17:16:05.656Z,95.04
2018-11-12T17:18:35.513Z,95.27
2018-11-12T17:21:05.059Z,94.97
2018-11-12T17:23:34.642Z,94.73
2018-11-12T17:26:04.491Z,95.08
2018-11-12T17:28:34.131Z,94.96
2018-11-12T17:31:03.770Z,95.24
2018-11-12T17:33:33.385Z,95.29
2018-11-12T17:36:03.228Z,94.97
2018-11-12T17:38:32.893Z,95.54
2018-11-12T17:41:04.931Z,95.03
2018-11-12T17:43:34.541Z,95.38
2018-11-12T17:46:04.273Z,95.38
2018-11-12T17:48:33.935Z,95.79
2018-11-12T17:51:03.442Z,95.54
2018-11-12T17:53:32.938Z,95.68
2018-11-12T17:56:02.494Z,95.50
2018-11-12T17:58:32.171Z,95.49
2018-11-12T18:01:01.946Z,95.57
2018-11-12T18:03:31.504Z,95.76
2018-11-12T18:06:01.411Z,95.66
2018-11-12T18:08:31.468Z,95.28
2018-11-12T18:11:02.785Z,94.97
2018-11-12T18:13:32.443Z,95.18
2018-11-12T18:16:02.032Z,95.13
2018-11-12T18:18:33.679Z,95.47
2018-11-12T18:21:03.398Z,95.42
2018-11-12T18:23:32.943Z,94.99
2018-11-12T18:26:02.640Z,94.85
2018-11-12T18:28:32.785Z,94.64
2018-11-12T18:31:02.972Z,94.65
2018-11-12T18:33:33.535Z,94.87
2018-11-12T18:36:09.413Z,94.98
2018-11-12T18:38:40.341Z,95.15
2018-11-12T18:41:09.887Z,94.82
2018-11-12T18:43:41.564Z,94.54
2018-11-12T18:46:12.364Z,94.45
2018-11-12T18:48:43.580Z,94.41
2018-11-12T18:51:17.684Z,94.67
2018-11-12T19:00:19.275Z,94.14
2018-11-12T19:02:51.707Z,94.07
2018-11-12T19:05:26.030Z,94.08
2018-11-12T19:08:03.431Z,94.25
2018-11-12T19:10:37.050Z,94.68
2018-11-12T19:13:07.666Z,94.21
2018-11-12T19:15:39.017Z,94.39
2018-11-12T19:18:12.055Z,94.41
2018-11-12T19:20:41.857Z,94.13
2018-11-12T19:23:14.224Z,94.16
2018-11-12T19:25:44.211Z,93.98
2018-11-12T19:28:14.509Z,94.03
2018-11-12T19:30:45.267Z,94.31
2018-11-12T19:35:50.181Z,94.61
2018-11-12T19:38:20.289Z,94.52
2018-11-12T19:53:08.326Z,94.57
2018-11-12T19:55:37.982Z,94.28
2018-11-12T19:58:07.838Z,94.47
2018-11-12T20:00:37.891Z,93.83
2018-11-12T20:03:07.807Z,93.93
2018-11-12T20:05:37.571Z,94.00
2018-11-12T20:08:07.653Z,94.37
2018-11-12T20:10:37.589Z,94.24
2018-11-12T20:13:07.944Z,94.46
2018-11-12T20:15:37.772Z,94.02
2018-11-12T20:18:12.785Z,94.07
2018-11-12T20:20:43.005Z,94.30
2018-11-12T20:23:12.687Z,94.36
2018-11-12T20:25:42.256Z,94.06
2018-11-12T20:28:11.904Z,94.13
2018-11-12T20:30:41.565Z,94.40
2018-11-12T20:33:11.281Z,94.44
2018-11-12T20:35:40.941Z,94.43
2018-11-12T20:38:10.594Z,94.38
2018-11-12T20:40:40.787Z,95.01
2018-11-12T20:43:10.682Z,94.96
2018-11-12T20:45:40.436Z,94.37
2018-11-12T20:48:10.423Z,95.09
2018-11-12T20:50:40.814Z,95.03
2018-11-12T20:53:10.693Z,94.48
2018-11-12T20:55:40.617Z,94.13
2018-11-12T20:58:10.270Z,94.22
2018-11-12T21:00:39.807Z,94.34
2018-11-12T21:05:54.961Z,94.54
2018-11-12T21:08:24.824Z,94.90
2018-11-12T21:13:39.132Z,94.77
2018-11-12T21:16:08.653Z,95.12
2018-11-12T21:18:38.817Z,94.76
2018-11-12T21:21:08.439Z,94.54
2018-11-12T21:23:38.495Z,94.74
2018-11-12T21:26:08.049Z,94.22
2018-11-12T21:28:37.605Z,94.53
2018-11-12T21:31:13.788Z,94.69
2018-11-12T21:33:43.649Z,94.83
2018-11-12T21:36:14.588Z,94.34
2018-11-12T21:38:44.544Z,94.76
2018-11-12T21:41:14.131Z,94.82
2018-11-12T21:43:44.559Z,94.50
2018-11-12T21:46:14.545Z,94.57
2018-11-12T21:48:45.010Z,94.50
2018-11-12T21:51:14.716Z,94.88
2018-11-12T21:53:44.759Z,95.07
2018-11-12T21:56:17.147Z,94.94
2018-11-12T21:58:48.117Z,95.37
2018-11-12T22:01:18.490Z,94.94
2018-11-12T22:03:48.323Z,94.43
2018-11-12T22:06:18.316Z,94.51
2018-11-12T22:08:48.852Z,94.66
2018-11-12T22:14:19.133Z,94.73
2018-11-12T22:16:49.101Z,94.55
2018-11-12T22:19:18.898Z,94.13
2018-11-12T22:21:48.544Z,94.05
2018-11-12T22:24:18.126Z,94.26
2018-11-12T22:26:47.757Z,94.40
2018-11-12T22:29:17.320Z,94.26
2018-11-12T22:31:51.366Z,94.20
2018-11-12T22:34:21.012Z,94.48
2018-11-12T22:36:50.632Z,94.59
2018-11-12T22:39:20.987Z,93.80
2018-11-12T22:41:50.482Z,93.76
2018-11-12T22:44:19.968Z,93.53
2018-11-12T22:46:49.540Z,93.70
2018-11-12T22:49:20.416Z,93.62
2018-11-12T22:51:49.895Z,93.23
2018-11-12T22:54:19.440Z,93.89
2018-11-12T22:56:48.984Z,93.32
2018-11-12T22:59:18.464Z,93.27
2018-11-12T23:01:48.061Z,93.60
2018-11-12T23:04:17.610Z,93.56
2018-11-12T23:06:47.099Z,93.57
2018-11-12T23:09:17.399Z,93.53
2018-11-12T23:11:47.054Z,93.53
2018-11-12T23:14:16.740Z,93.38
2018-11-12T23:16:46.227Z,93.59
2018-11-12T23:19:15.733Z,93.57
2018-11-12T23:21:45.231Z,93.85
2018-11-12T23:24:14.770Z,93.17
2018-11-12T23:26:44.230Z,93.27
2018-11-12T23:29:13.704Z,93.45
2018-11-12T23:31:43.225Z,93.17
2018-11-12T23:34:12.697Z,93.18
2018-11-12T23:36:42.160Z,93.21
2018-11-12T23:39:11.631Z,93.22
2018-11-12T23:41:41.186Z,93.30
2018-11-12T23:44:10.695Z,93.58
2018-11-12T23:46:40.140Z,93.47
2018-11-12T23:49:09.611Z,92.92
2018-11-12T23:51:39.081Z,92.76
2018-11-12T23:54:08.579Z,93.30
2018-11-12T23:56:38.007Z,93.58
2018-11-12T23:59:07.536Z,93.63
